Hovedside
METAR-TAF:

METAR-TAF

Lufthavner :

Norrköping, Sverige

breddegrad: 58-35N, lengdegrad: 016-09E, høyde over havet: 34 m

Gjeldene værobservasjon

Denne rapporten ble laget for 1 time og 16 minutter siden, klokken 09:50 UTC
Vind 18 kt fra Vest
Temperatur 8°C
Luftfuktighet 42%
Trykk 1009 hPa
Sikt 10 km eller mer
Spredte skyer i en høyde av 2500 ft, Bygeskyer.
Brutte skyer i en høyde av 4900 ft
lette snøbyger, lett hagl eller graupel

METAR: ESSP 270950Z 26018KT 9999 -SHSNGS SCT025CB BKN049 08/M04 Q1009

Tid: 13:06 (11:06 UTC)

Varsel

Denne rapporten ble laget for 2 timer og 36 minutter siden, klokken 08:30 UTC
Varsel gyldig fra 27. klokken 09 UTC til 27. klokken 18 UTC
Vind 5 kt fra Vest-sørvest
Sikt 10 km eller mer
ingen skyer under 1500 m og ingen bygeskyer
Sannsynlighet 40%
fra 27. klokken 10 UTC til 27. klokken 18 UTC
Brutte skyer i en høyde av 4000 ft, Bygeskyer.
regnbyger, lett hagl eller graupel

TAF: ESSP 270830Z 2709/2718 25005KT CAVOK PROB40 2710/2718 SHRAGS BKN040CB

Værobservasjoner og værvarsel for over 4000 flyplasser (METAR- og TAF-rapporter).

Tilgjengelige stasjoner er representert av de røde og gule prikkene på kartet.

Hold musepekeren over prikken for å se navnet på stasjonen.

Klikk så for å se værobservasjoner og -varsler.

For å forandre kartet kan du klikke på den grønne knappen med svart kryss for å zoome inn, på den grønne knappen med strek for å zoome ut, eller på de grønne pilene for å se tilstøtende kart.


METAR-TAF: